Time;durP1;ratioP1;P1;durP2;ratioP2;P2;SDS_P1;SDS_P2;PMS_P1;PMS_P2;Temp;Humidity;BMP_temperature;BMP_pressure;BME280_temperature;BME280_humidity;BME280_pressure;Samples;Min_cycle;Max_cycle;Signal;HPM_P1;HPM_P2
2021/10/03 00:00:25;;;;;;;6.03;3.65;;;;;;;;;;5014733;28;20049;-66
2021/10/03 00:03:11;;;;;;;6.40;4.15;;;;;;;;;;5014665;28;20049;-67
2021/10/03 00:05:56;;;;;;;5.57;3.40;;;;;;;;;;4995365;28;20125;-66
2021/10/03 00:08:42;;;;;;;3.95;3.17;;;;;;;;;;4994932;28;20093;-66
2021/10/03 00:11:28;;;;;;;3.58;2.75;;;;;;;;;;4977195;28;20066;-66
2021/10/03 00:14:13;;;;;;;3.13;2.63;;;;;;;;;;4995694;28;20428;-66
2021/10/03 00:16:58;;;;;;;3.50;2.22;;;;;;;;;;4994804;28;20046;-67
2021/10/03 00:19:44;;;;;;;2.55;2.20;;;;;;;;;;4994627;28;20097;-66
2021/10/03 00:22:29;;;;;;;3.67;2.58;;;;;;;;;;4994484;28;20050;-67
2021/10/03 00:25:14;;;;;;;3.97;2.13;;;;;;;;;;5007157;28;20054;-66
2021/10/03 00:28:00;;;;;;;2.08;1.75;;;;;;;;;;5014057;28;20054;-66
2021/10/03 00:30:45;;;;;;;2.95;1.80;;;;;;;;;;5014178;28;20133;-66
2021/10/03 00:33:30;;;;;;;2.97;1.85;;;;;;;;;;4999071;28;20120;-67
2021/10/03 00:36:15;;;;;;;2.22;1.40;;;;;;;;;;4995324;28;20055;-67
2021/10/03 00:39:01;;;;;;;3.92;1.80;;;;;;;;;;4994426;28;20050;-67
2021/10/03 00:41:46;;;;;;;4.03;1.65;;;;;;;;;;4994017;28;20769;-67
2021/10/03 00:44:31;;;;;;;2.17;1.50;;;;;;;;;;4993594;28;20054;-68
2021/10/03 00:47:16;;;;;;;2.63;1.17;;;;;;;;;;5013904;28;20054;-67
2021/10/03 00:50:01;;;;;;;3.03;1.00;;;;;;;;;;4999041;28;20058;-67
2021/10/03 00:52:47;;;;;;;2.33;1.10;;;;;;;;;;5013569;28;20416;-67
2021/10/03 00:55:33;;;;;;;2.35;1.10;;;;;;;;;;5006831;28;20524;-67
2021/10/03 00:58:18;;;;;;;2.15;1.02;;;;;;;;;;4993783;28;20421;-66
2021/10/03 01:01:04;;;;;;;1.70;0.85;;;;;;;;;;4992847;28;20508;-67
2021/10/03 01:03:50;;;;;;;1.48;1.00;;;;;;;;;;4993580;28;20046;-66
2021/10/03 01:06:35;;;;;;;2.28;0.85;;;;;;;;;;5005648;28;20093;-66
2021/10/03 01:09:21;;;;;;;0.88;0.80;;;;;;;;;;5011780;28;20125;-66
2021/10/03 01:12:06;;;;;;;2.30;1.17;;;;;;;;;;5013385;28;20050;-67
2021/10/03 01:14:52;;;;;;;2.35;1.00;;;;;;;;;;5013010;28;20137;-67
2021/10/03 01:17:37;;;;;;;0.93;0.88;;;;;;;;;;5013165;28;20078;-67
2021/10/03 01:20:23;;;;;;;4.63;1.45;;;;;;;;;;5013378;28;20125;-66
2021/10/03 01:23:08;;;;;;;1.98;1.20;;;;;;;;;;5013126;28;20108;-66
2021/10/03 01:25:54;;;;;;;1.60;1.00;;;;;;;;;;5012993;28;20504;-66
2021/10/03 01:28:39;;;;;;;1.45;0.93;;;;;;;;;;5008023;28;20050;-66
2021/10/03 01:31:25;;;;;;;1.55;0.90;;;;;;;;;;4993377;28;20050;-66
2021/10/03 01:34:10;;;;;;;1.20;0.98;;;;;;;;;;4992958;28;20093;-67
2021/10/03 01:36:56;;;;;;;2.20;1.00;;;;;;;;;;4993177;28;20093;-66
2021/10/03 01:39:41;;;;;;;1.38;1.27;;;;;;;;;;5003478;28;20053;-66
2021/10/03 01:42:26;;;;;;;2.80;1.30;;;;;;;;;;4997888;28;20475;-66
2021/10/03 01:45:12;;;;;;;1.70;1.17;;;;;;;;;;5012336;28;20508;-66
2021/10/03 01:48:02;;;;;;;2.20;1.05;;;;;;;;;;4981635;28;20548;-66
2021/10/03 01:50:50;;;;;;;1.13;1.02;;;;;;;;;;4995793;28;20501;-66
2021/10/03 01:53:36;;;;;;;1.38;1.00;;;;;;;;;;4992920;28;20055;-66
2021/10/03 01:56:22;;;;;;;1.25;1.05;;;;;;;;;;4992903;28;20429;-66
2021/10/03 01:59:07;;;;;;;1.85;1.40;;;;;;;;;;4992749;28;20050;-67
2021/10/03 02:01:54;;;;;;;1.45;1.30;;;;;;;;;;4997677;28;20093;-66
2021/10/03 02:04:39;;;;;;;1.88;1.23;;;;;;;;;;5012338;28;20050;-66
2021/10/03 02:07:24;;;;;;;1.02;1.00;;;;;;;;;;5012455;28;20053;-65
2021/10/03 02:10:10;;;;;;;1.30;1.00;;;;;;;;;;5006378;28;20070;-66
2021/10/03 02:12:55;;;;;;;1.50;1.20;;;;;;;;;;4992786;28;20390;-66
2021/10/03 02:15:42;;;;;;;1.30;1.10;;;;;;;;;;4992560;28;20129;-66
2021/10/03 02:18:30;;;;;;;2.67;1.20;;;;;;;;;;4978039;28;20079;-66
2021/10/03 02:21:16;;;;;;;1.60;1.40;;;;;;;;;;4989748;28;20054;-66
2021/10/03 02:24:01;;;;;;;1.67;1.48;;;;;;;;;;4997340;28;20128;-66
2021/10/03 02:26:46;;;;;;;3.35;1.50;;;;;;;;;;5012117;28;20053;-66
2021/10/03 02:29:31;;;;;;;1.52;1.42;;;;;;;;;;5012186;28;20508;-67
2021/10/03 02:32:17;;;;;;;1.65;1.55;;;;;;;;;;4994408;28;20452;-66
2021/10/03 02:35:02;;;;;;;2.30;1.50;;;;;;;;;;4991326;28;20058;-67
2021/10/03 02:37:47;;;;;;;1.00;0.90;;;;;;;;;;4992561;28;20058;-66
2021/10/03 02:40:32;;;;;;;1.33;1.17;;;;;;;;;;4975029;28;20085;-66
2021/10/03 02:43:17;;;;;;;1.50;1.17;;;;;;;;;;5012335;28;20055;-66
2021/10/03 02:46:03;;;;;;;1.58;1.20;;;;;;;;;;5012007;28;20431;-66
2021/10/03 02:48:51;;;;;;;1.65;0.80;;;;;;;;;;5012115;28;20058;-66
2021/10/03 02:51:37;;;;;;;0.85;0.73;;;;;;;;;;5011350;28;20049;-67
2021/10/03 02:54:22;;;;;;;1.05;0.93;;;;;;;;;;5011851;28;20089;-66
2021/10/03 02:57:07;;;;;;;1.77;1.00;;;;;;;;;;5012022;28;20054;-66
2021/10/03 02:59:52;;;;;;;3.90;0.80;;;;;;;;;;5011024;28;20050;-67
2021/10/03 03:02:38;;;;;;;1.67;0.88;;;;;;;;;;5003145;28;20050;-66
2021/10/03 03:05:23;;;;;;;1.42;0.60;;;;;;;;;;5011718;28;20104;-66
2021/10/03 03:08:08;;;;;;;0.60;0.52;;;;;;;;;;5011877;28;20061;-67
2021/10/03 03:10:54;;;;;;;1.38;0.60;;;;;;;;;;5011995;28;20467;-67
2021/10/03 03:13:39;;;;;;;0.88;0.50;;;;;;;;;;4994735;28;20520;-66
2021/10/03 03:16:24;;;;;;;1.05;0.88;;;;;;;;;;4992232;28;20448;-66
2021/10/03 03:19:10;;;;;;;1.40;0.80;;;;;;;;;;4992254;28;20054;-67
2021/10/03 03:21:55;;;;;;;3.10;0.52;;;;;;;;;;4992168;28;20049;-66
2021/10/03 03:24:41;;;;;;;1.60;0.30;;;;;;;;;;5011404;28;20065;-67
2021/10/03 03:27:26;;;;;;;2.60;0.40;;;;;;;;;;5011938;28;20125;-66
2021/10/03 03:30:12;;;;;;;1.08;0.38;;;;;;;;;;5011801;28;20416;-66
2021/10/03 03:32:57;;;;;;;1.85;0.50;;;;;;;;;;5008030;28;20412;-66
2021/10/03 03:35:43;;;;;;;1.17;0.80;;;;;;;;;;4995357;28;20432;-66
2021/10/03 03:38:35;;;;;;;0.85;0.50;;;;;;;;;;4995521;28;20054;-66
2021/10/03 03:41:20;;;;;;;1.73;0.70;;;;;;;;;;4995267;28;20054;-66
2021/10/03 03:44:05;;;;;;;1.38;0.93;;;;;;;;;;5006270;28;20046;-66
2021/10/03 03:46:50;;;;;;;0.85;0.60;;;;;;;;;;5015085;28;20057;-66
2021/10/03 03:49:36;;;;;;;1.63;0.70;;;;;;;;;;5014890;28;20054;-66
2021/10/03 03:52:21;;;;;;;1.70;0.70;;;;;;;;;;5014638;28;20572;-66
2021/10/03 03:55:07;;;;;;;1.20;0.70;;;;;;;;;;4997727;28;20050;-66
2021/10/03 03:57:52;;;;;;;4.00;0.90;;;;;;;;;;4995142;28;20062;-65
2021/10/03 04:00:37;;;;;;;1.77;0.70;;;;;;;;;;4994959;28;20050;-66
2021/10/03 04:03:23;;;;;;;2.78;1.02;;;;;;;;;;4994916;28;20050;-66
2021/10/03 04:06:08;;;;;;;2.60;1.10;;;;;;;;;;5014601;28;20058;-66
2021/10/03 04:08:53;;;;;;;2.25;1.25;;;;;;;;;;5014422;28;20058;-66
2021/10/03 04:11:39;;;;;;;2.63;0.70;;;;;;;;;;5014524;28;20053;-66
2021/10/03 04:14:24;;;;;;;3.42;1.10;;;;;;;;;;5013530;28;20424;-66
2021/10/03 04:17:09;;;;;;;1.95;0.75;;;;;;;;;;5014277;28;20050;-66
2021/10/03 04:19:55;;;;;;;2.47;0.60;;;;;;;;;;5014392;28;20547;-66
2021/10/03 04:22:40;;;;;;;0.55;0.40;;;;;;;;;;5014261;28;20045;-66
2021/10/03 04:25:25;;;;;;;2.75;0.60;;;;;;;;;;5002962;28;20508;-66
2021/10/03 04:28:11;;;;;;;0.80;0.40;;;;;;;;;;4994719;28;20129;-66
2021/10/03 04:30:56;;;;;;;1.73;0.60;;;;;;;;;;4994595;28;20117;-66
2021/10/03 04:33:42;;;;;;;2.30;0.47;;;;;;;;;;4994118;28;20050;-66
2021/10/03 04:36:27;;;;;;;3.35;0.60;;;;;;;;;;5010372;28;20054;-66
2021/10/03 04:39:12;;;;;;;1.60;0.70;;;;;;;;;;5013851;28;20046;-66
2021/10/03 04:41:58;;;;;;;3.80;0.63;;;;;;;;;;5013731;28;20046;-66
2021/10/03 04:44:43;;;;;;;1.48;0.65;;;;;;;;;;5013465;28;20061;-66
2021/10/03 04:47:28;;;;;;;2.25;0.75;;;;;;;;;;5013818;28;20440;-66
2021/10/03 04:50:14;;;;;;;3.17;1.05;;;;;;;;;;5013740;28;20049;-66
2021/10/03 04:52:59;;;;;;;1.88;0.80;;;;;;;;;;5013618;28;20059;-66
2021/10/03 04:55:45;;;;;;;3.88;1.33;;;;;;;;;;5012877;28;20515;-65
2021/10/03 04:58:30;;;;;;;2.55;0.90;;;;;;;;;;5013456;28;20050;-66
2021/10/03 05:01:17;;;;;;;4.25;1.20;;;;;;;;;;5011728;28;20054;-66
2021/10/03 05:04:03;;;;;;;3.10;1.25;;;;;;;;;;5013198;28;20058;-66
2021/10/03 05:06:48;;;;;;;3.72;1.45;;;;;;;;;;5002990;28;20416;-66
2021/10/03 05:09:33;;;;;;;4.22;1.58;;;;;;;;;;4993887;28;20058;-66
2021/10/03 05:12:19;;;;;;;1.67;1.00;;;;;;;;;;4993675;28;20058;-66
2021/10/03 05:15:05;;;;;;;2.10;1.20;;;;;;;;;;4993346;28;20058;-66
2021/10/03 05:17:50;;;;;;;3.50;1.52;;;;;;;;;;5008805;28;20049;-66
2021/10/03 05:20:35;;;;;;;5.10;1.42;;;;;;;;;;5013083;28;20050;-66
2021/10/03 05:23:21;;;;;;;2.55;1.90;;;;;;;;;;5012932;28;20053;-66
2021/10/03 05:26:06;;;;;;;3.40;1.80;;;;;;;;;;5004820;28;20047;-66
2021/10/03 05:28:51;;;;;;;3.72;1.65;;;;;;;;;;4993390;28;20054;-66
2021/10/03 05:31:37;;;;;;;3.38;1.70;;;;;;;;;;4993235;28;20054;-66
2021/10/03 05:34:22;;;;;;;4.28;2.10;;;;;;;;;;4992967;28;20058;-66
2021/10/03 05:37:07;;;;;;;4.18;2.10;;;;;;;;;;4993538;28;20128;-66
2021/10/03 05:39:53;;;;;;;4.10;2.03;;;;;;;;;;4993142;28;20133;-66
2021/10/03 05:42:38;;;;;;;5.75;2.35;;;;;;;;;;4992899;28;20125;-66
2021/10/03 05:45:23;;;;;;;3.63;1.70;;;;;;;;;;4991929;28;20465;-66
2021/10/03 05:48:08;;;;;;;2.83;1.33;;;;;;;;;;5010883;28;20053;-66
2021/10/03 05:50:53;;;;;;;2.05;0.90;;;;;;;;;;5012657;28;20054;-66
2021/10/03 05:53:39;;;;;;;3.13;0.93;;;;;;;;;;5012458;28;20081;-66
2021/10/03 05:56:24;;;;;;;3.83;1.08;;;;;;;;;;5010922;28;20058;-66
2021/10/03 05:59:12;;;;;;;3.35;0.90;;;;;;;;;;4992830;28;20054;-66
2021/10/03 06:01:57;;;;;;;2.92;1.10;;;;;;;;;;4992979;28;20046;-66
2021/10/03 06:04:42;;;;;;;5.60;1.40;;;;;;;;;;4992676;28;20058;-66
2021/10/03 06:07:29;;;;;;;3.22;0.70;;;;;;;;;;4996162;28;20046;-66
2021/10/03 06:10:14;;;;;;;1.80;0.60;;;;;;;;;;5003995;28;20046;-66
2021/10/03 06:13:00;;;;;;;2.42;1.10;;;;;;;;;;5003967;28;20050;-66
2021/10/03 06:15:45;;;;;;;4.13;0.90;;;;;;;;;;5003919;28;20054;-66
2021/10/03 06:18:30;;;;;;;1.95;0.70;;;;;;;;;;5008045;28;20054;-66
2021/10/03 06:21:16;;;;;;;3.42;1.00;;;;;;;;;;5012096;28;20054;-66
2021/10/03 06:24:01;;;;;;;1.95;0.82;;;;;;;;;;5012024;28;20420;-66
2021/10/03 06:26:47;;;;;;;2.30;1.17;;;;;;;;;;5010741;28;20049;-66
2021/10/03 06:29:32;;;;;;;1.20;0.82;;;;;;;;;;5012265;28;20053;-66
2021/10/03 06:32:18;;;;;;;2.17;1.50;;;;;;;;;;5012155;28;20157;-66
2021/10/03 06:35:04;;;;;;;2.03;0.98;;;;;;;;;;4998007;28;20050;-66
2021/10/03 06:37:49;;;;;;;3.33;0.98;;;;;;;;;;5011258;28;20089;-66
2021/10/03 06:40:34;;;;;;;1.77;0.82;;;;;;;;;;5011564;28;20045;-66
2021/10/03 06:43:20;;;;;;;1.55;1.00;;;;;;;;;;5011832;28;20054;-66
2021/10/03 06:46:06;;;;;;;2.00;0.95;;;;;;;;;;5009872;28;20046;-66
2021/10/03 06:48:50;;;;;;;1.65;1.15;;;;;;;;;;4992225;28;20054;-66
2021/10/03 06:51:36;;;;;;;2.88;0.88;;;;;;;;;;4992462;28;20058;-66
2021/10/03 06:54:22;;;;;;;3.17;0.80;;;;;;;;;;4992005;28;20401;-65
2021/10/03 06:57:07;;;;;;;2.05;0.82;;;;;;;;;;4999599;28;20042;-66
2021/10/03 06:59:52;;;;;;;1.25;0.70;;;;;;;;;;5010224;28;20555;-65
2021/10/03 07:02:38;;;;;;;2.88;0.93;;;;;;;;;;5001580;28;20424;-65
2021/10/03 07:05:23;;;;;;;2.35;1.02;;;;;;;;;;4990219;28;20054;-65
2021/10/03 07:08:08;;;;;;;2.00;1.25;;;;;;;;;;5008841;28;20062;-65
2021/10/03 07:10:54;;;;;;;2.08;0.90;;;;;;;;;;5015713;28;20061;-65
2021/10/03 07:13:39;;;;;;;2.58;0.85;;;;;;;;;;5006256;28;20058;-65
2021/10/03 07:16:24;;;;;;;2.78;1.30;;;;;;;;;;5006842;28;20058;-65
2021/10/03 07:19:10;;;;;;;1.60;1.30;;;;;;;;;;4996701;28;20464;-65
2021/10/03 07:21:55;;;;;;;3.20;1.40;;;;;;;;;;4995771;28;20051;-65
2021/10/03 07:24:40;;;;;;;2.53;1.35;;;;;;;;;;4995412;28;20055;-65
2021/10/03 07:27:26;;;;;;;1.90;1.00;;;;;;;;;;5005100;28;20046;-65
2021/10/03 07:30:11;;;;;;;2.92;0.82;;;;;;;;;;5006070;28;20045;-65
2021/10/03 07:32:56;;;;;;;1.83;1.17;;;;;;;;;;5012079;28;20053;-65
2021/10/03 07:35:42;;;;;;;4.10;1.58;;;;;;;;;;5014751;28;20628;-65
2021/10/03 07:38:27;;;;;;;1.38;1.13;;;;;;;;;;5008090;28;20055;-66
2021/10/03 07:41:12;;;;;;;3.28;2.10;;;;;;;;;;4995086;28;20054;-65
2021/10/03 07:43:57;;;;;;;4.32;1.20;;;;;;;;;;4995299;28;20071;-65
2021/10/03 07:46:43;;;;;;;2.63;1.42;;;;;;;;;;4995396;28;20058;-65
2021/10/03 07:49:28;;;;;;;1.75;0.95;;;;;;;;;;5007286;28;20049;-65
2021/10/03 07:52:13;;;;;;;3.63;1.10;;;;;;;;;;5014895;28;20054;-65
2021/10/03 07:54:59;;;;;;;0.98;0.73;;;;;;;;;;5014659;28;20117;-65
2021/10/03 07:57:44;;;;;;;2.47;1.05;;;;;;;;;;5014767;28;20121;-65
2021/10/03 08:00:32;;;;;;;1.20;0.52;;;;;;;;;;4996564;28;20496;-65
2021/10/03 08:03:17;;;;;;;1.17;0.40;;;;;;;;;;4994945;28;20500;-65
2021/10/03 08:06:03;;;;;;;3.80;0.52;;;;;;;;;;4994970;28;20050;-65
2021/10/03 08:08:48;;;;;;;0.68;0.43;;;;;;;;;;4995255;28;20560;-65
2021/10/03 08:11:33;;;;;;;0.70;0.52;;;;;;;;;;5014418;28;20050;-65
2021/10/03 08:14:19;;;;;;;2.22;0.60;;;;;;;;;;5014201;28;20049;-65
2021/10/03 08:17:04;;;;;;;1.52;0.50;;;;;;;;;;5014306;28;20439;-65
2021/10/03 08:19:50;;;;;;;1.35;1.00;;;;;;;;;;5007464;28;20050;-65
2021/10/03 08:22:35;;;;;;;1.98;0.98;;;;;;;;;;4994571;28;20501;-65
2021/10/03 08:25:21;;;;;;;0.77;0.52;;;;;;;;;;4994566;28;20416;-65
2021/10/03 08:28:06;;;;;;;0.75;0.60;;;;;;;;;;4994705;28;20084;-65
2021/10/03 08:30:51;;;;;;;1.52;0.90;;;;;;;;;;5004333;28;20081;-65
2021/10/03 08:33:37;;;;;;;0.75;0.50;;;;;;;;;;5013856;28;20054;-65
2021/10/03 08:36:22;;;;;;;0.70;0.70;;;;;;;;;;5013932;28;20508;-65
2021/10/03 08:39:07;;;;;;;0.73;0.70;;;;;;;;;;5013886;28;20058;-65
2021/10/03 08:41:52;;;;;;;0.95;0.52;;;;;;;;;;4996686;28;20560;-64
2021/10/03 08:44:38;;;;;;;1.33;0.32;;;;;;;;;;4994138;28;20046;-64
2021/10/03 08:47:23;;;;;;;1.27;0.50;;;;;;;;;;5013376;28;20050;-64
2021/10/03 08:50:09;;;;;;;1.60;0.50;;;;;;;;;;5011811;28;20516;-65
2021/10/03 08:52:55;;;;;;;2.22;0.80;;;;;;;;;;5013671;28;20062;-65
2021/10/03 08:55:40;;;;;;;1.42;0.50;;;;;;;;;;5013374;28;20124;-64
2021/10/03 08:58:26;;;;;;;2.00;0.85;;;;;;;;;;5013413;28;20455;-64
2021/10/03 09:01:13;;;;;;;2.75;0.68;;;;;;;;;;5005153;28;20054;-64
2021/10/03 09:04:00;;;;;;;2.05;0.82;;;;;;;;;;4993644;28;20046;-65
2021/10/03 09:07:01;;;;;;;5.50;2.08;;;;;;;;;;4993729;28;20054;-64
2021/10/03 09:09:55;;;;;;;1.23;0.90;;;;;;;;;;4993906;28;20054;-64
2021/10/03 09:12:40;;;;;;;9.10;8.30;;;;;;;;;;5010941;28;20065;-64
2021/10/03 09:15:26;;;;;;;1.88;1.00;;;;;;;;;;5008768;28;20050;-63
2021/10/03 09:18:15;;;;;;;4.88;1.67;;;;;;;;;;4993664;28;20054;-64
2021/10/03 09:21:01;;;;;;;3.13;1.27;;;;;;;;;;4994590;28;20420;-64
2021/10/03 09:23:46;;;;;;;3.42;0.70;;;;;;;;;;4993325;28;20046;-63
2021/10/03 09:26:31;;;;;;;1.75;0.68;;;;;;;;;;4978914;28;20126;-63
2021/10/03 09:29:20;;;;;;;1.63;0.60;;;;;;;;;;4993014;28;20501;-64
2021/10/03 09:32:08;;;;;;;1.67;0.55;;;;;;;;;;5006051;28;20054;-63
2021/10/03 09:34:53;;;;;;;1.63;0.50;;;;;;;;;;5012716;28;20050;-64
2021/10/03 09:37:39;;;;;;;3.22;0.82;;;;;;;;;;5012870;28;20046;-64
2021/10/03 09:40:25;;;;;;;0.20;0.20;;;;;;;;;;5012925;28;20050;-64
2021/10/03 09:43:12;;;;;;;0.75;0.40;;;;;;;;;;4994196;28;20433;-63
2021/10/03 09:45:57;;;;;;;1.73;0.40;;;;;;;;;;4994148;28;20042;-64
2021/10/03 09:48:50;;;;;;;2.85;0.57;;;;;;;;;;4993306;28;20412;-64
2021/10/03 09:51:35;;;;;;;3.17;0.43;;;;;;;;;;4995320;28;20093;-64
2021/10/03 09:54:21;;;;;;;2.83;0.43;;;;;;;;;;5012249;28;20504;-64
2021/10/03 09:57:05;;;;;;;1.23;0.63;;;;;;;;;;5012762;28;20085;-64
2021/10/03 09:59:51;;;;;;;1.27;0.30;;;;;;;;;;4997786;28;20053;-64
2021/10/03 10:02:35;;;;;;;2.03;0.50;;;;;;;;;;5004363;28;20128;-63
2021/10/03 10:05:22;;;;;;;1.85;0.45;;;;;;;;;;4992703;28;20054;-65
2021/10/03 10:08:07;;;;;;;4.68;0.47;;;;;;;;;;4992909;28;20046;-64
2021/10/03 10:10:54;;;;;;;1.02;0.30;;;;;;;;;;4992750;28;20129;-63
2021/10/03 10:13:39;;;;;;;2.58;0.57;;;;;;;;;;4992454;28;20058;-65
2021/10/03 10:16:28;;;;;;;3.75;0.60;;;;;;;;;;4991841;28;20050;-63
2021/10/03 10:19:32;;;;;;;2.33;0.63;;;;;;;;;;4992727;28;20051;-64
2021/10/03 10:22:22;;;;;;;1.17;0.50;;;;;;;;;;4992408;28;20516;-63
2021/10/03 10:25:16;;;;;;;1.55;0.40;;;;;;;;;;5011919;28;20092;-63
2021/10/03 10:28:04;;;;;;;1.92;0.50;;;;;;;;;;5012040;28;20053;-64
2021/10/03 10:31:08;;;;;;;1.13;0.32;;;;;;;;;;5012292;28;20054;-63
2021/10/03 10:33:53;;;;;;;2.75;0.43;;;;;;;;;;5011324;28;20058;-65
2021/10/03 10:36:50;;;;;;;2.63;0.30;;;;;;;;;;5012376;28;20054;-65
2021/10/03 10:39:35;;;;;;;1.23;0.30;;;;;;;;;;5012044;28;20058;-65
2021/10/03 10:42:25;;;;;;;0.70;0.43;;;;;;;;;;5014763;28;20058;-65
2021/10/03 10:45:30;;;;;;;2.78;0.45;;;;;;;;;;5003639;28;20424;-65
2021/10/03 10:48:16;;;;;;;4.28;0.65;;;;;;;;;;5015991;28;20149;-65
2021/10/03 10:51:01;;;;;;;2.72;0.50;;;;;;;;;;5015800;28;20447;-65
2021/10/03 10:53:46;;;;;;;2.50;1.23;;;;;;;;;;5015814;28;20057;-65
2021/10/03 10:56:31;;;;;;;1.98;0.47;;;;;;;;;;4994640;28;20525;-65
2021/10/03 10:59:17;;;;;;;1.80;0.60;;;;;;;;;;4996086;28;20133;-65
2021/10/03 11:02:02;;;;;;;1.10;0.32;;;;;;;;;;4995998;28;20421;-65
2021/10/03 11:04:47;;;;;;;1.02;0.50;;;;;;;;;;4995916;28;20050;-65
2021/10/03 11:07:53;;;;;;;0.30;0.22;;;;;;;;;;4996084;28;20125;-65
2021/10/03 11:11:00;;;;;;;2.17;0.40;;;;;;;;;;4996108;28;20046;-65
2021/10/03 11:13:45;;;;;;;2.28;0.22;;;;;;;;;;4995451;28;20138;-65
2021/10/03 11:16:34;;;;;;;1.92;0.35;;;;;;;;;;5002374;28;20049;-65
2021/10/03 11:19:25;;;;;;;1.42;0.32;;;;;;;;;;5015444;28;20476;-65
2021/10/03 11:22:15;;;;;;;0.95;0.30;;;;;;;;;;5015690;28;20053;-65
2021/10/03 11:25:00;;;;;;;0.45;0.20;;;;;;;;;;5015129;28;20062;-65
2021/10/03 11:27:52;;;;;;;2.45;0.40;;;;;;;;;;5001224;28;20125;-65
2021/10/03 11:30:37;;;;;;;4.27;0.80;;;;;;;;;;4995529;28;20050;-65
2021/10/03 11:33:22;;;;;;;1.45;0.82;;;;;;;;;;4980920;28;20344;-65
2021/10/03 11:36:07;;;;;;;2.17;0.80;;;;;;;;;;4995584;28;20054;-65
2021/10/03 11:38:53;;;;;;;1.30;1.05;;;;;;;;;;5014923;28;20058;-65
2021/10/03 11:41:47;;;;;;;0.63;0.40;;;;;;;;;;5014903;28;20050;-65
2021/10/03 11:44:32;;;;;;;1.73;0.50;;;;;;;;;;5014598;28;20050;-65
2021/10/03 11:47:17;;;;;;;0.85;0.28;;;;;;;;;;5010427;28;20054;-65
2021/10/03 11:50:03;;;;;;;0.63;0.40;;;;;;;;;;4995188;28;20504;-65
2021/10/03 11:52:48;;;;;;;1.98;0.63;;;;;;;;;;5001109;28;20049;-65
2021/10/03 11:55:34;;;;;;;2.78;0.55;;;;;;;;;;5014460;28;20125;-65
2021/10/03 11:58:22;;;;;;;1.27;0.40;;;;;;;;;;5014826;28;20058;-65
2021/10/03 12:01:07;;;;;;;0.60;0.20;;;;;;;;;;5013084;28;20046;-65
2021/10/03 12:03:53;;;;;;;1.75;0.32;;;;;;;;;;5012071;28;20089;-65
2021/10/03 12:06:38;;;;;;;1.90;0.45;;;;;;;;;;4995168;28;20117;-65
2021/10/03 12:09:27;;;;;;;1.58;0.20;;;;;;;;;;4994995;28;20050;-65
2021/10/03 12:12:13;;;;;;;2.58;0.50;;;;;;;;;;5010371;28;20120;-65
2021/10/03 12:14:58;;;;;;;1.30;0.30;;;;;;;;;;4999550;28;20129;-65
2021/10/03 12:17:49;;;;;;;0.55;0.30;;;;;;;;;;5014821;28;20058;-65
2021/10/03 12:20:46;;;;;;;1.02;0.45;;;;;;;;;;5015325;28;20049;-65
2021/10/03 12:23:39;;;;;;;0.75;0.20;;;;;;;;;;5000869;28;20049;-65
2021/10/03 12:26:37;;;;;;;1.48;0.30;;;;;;;;;;5015545;28;20389;-65
2021/10/03 12:29:26;;;;;;;0.82;0.25;;;;;;;;;;5015678;28;20046;-65
2021/10/03 12:32:13;;;;;;;0.73;0.20;;;;;;;;;;5014675;28;20415;-65
2021/10/03 12:35:02;;;;;;;2.92;0.50;;;;;;;;;;5014828;28;20170;-65
2021/10/03 12:37:48;;;;;;;1.02;0.20;;;;;;;;;;5015379;28;20054;-65
2021/10/03 12:40:33;;;;;;;0.55;0.20;;;;;;;;;;5014651;28;20046;-66
2021/10/03 12:43:18;;;;;;;2.25;0.38;;;;;;;;;;4998009;28;20069;-66
2021/10/03 12:46:03;;;;;;;1.05;0.20;;;;;;;;;;4995391;28;20489;-66
2021/10/03 12:48:49;;;;;;;0.82;0.25;;;;;;;;;;4995590;28;20129;-67
2021/10/03 12:51:34;;;;;;;1.63;0.22;;;;;;;;;;4996805;28;20739;-67
2021/10/03 12:54:20;;;;;;;0.75;0.28;;;;;;;;;;5015870;28;20057;-67
2021/10/03 12:57:05;;;;;;;2.25;0.45;;;;;;;;;;5016960;28;20054;-67
2021/10/03 12:59:51;;;;;;;1.15;0.60;;;;;;;;;;5018103;28;20058;-65
2021/10/03 13:02:36;;;;;;;1.52;0.40;;;;;;;;;;5012998;28;20045;-65
2021/10/03 13:05:22;;;;;;;3.05;0.50;;;;;;;;;;5012973;28;20559;-65
2021/10/03 13:08:07;;;;;;;0.93;0.30;;;;;;;;;;5013490;28;20042;-65
2021/10/03 13:10:52;;;;;;;0.98;0.40;;;;;;;;;;5013576;28;20397;-65
2021/10/03 13:13:38;;;;;;;2.90;0.50;;;;;;;;;;5003485;28;20056;-65
2021/10/03 13:16:24;;;;;;;2.50;0.30;;;;;;;;;;4993771;28;20062;-65
2021/10/03 13:19:09;;;;;;;1.42;0.70;;;;;;;;;;4993875;28;20058;-64
2021/10/03 13:21:54;;;;;;;0.93;0.60;;;;;;;;;;4993545;28;20050;-63
2021/10/03 13:24:39;;;;;;;1.52;0.60;;;;;;;;;;5007083;28;20050;-64
2021/10/03 13:27:25;;;;;;;0.80;0.60;;;;;;;;;;5013047;28;20421;-63
2021/10/03 13:30:11;;;;;;;2.08;1.00;;;;;;;;;;5013169;28;20046;-64
2021/10/03 13:32:56;;;;;;;2.58;1.02;;;;;;;;;;5012907;28;20049;-63
2021/10/03 13:35:42;;;;;;;3.13;1.50;;;;;;;;;;4993123;28;20054;-64
2021/10/03 13:38:27;;;;;;;1.60;1.10;;;;;;;;;;4993371;28;20127;-63
2021/10/03 13:41:12;;;;;;;3.08;1.20;;;;;;;;;;4993183;28;20046;-63
2021/10/03 13:43:58;;;;;;;1.58;0.90;;;;;;;;;;4995413;28;20054;-65
2021/10/03 13:46:44;;;;;;;2.63;1.10;;;;;;;;;;5012899;28;20045;-64
2021/10/03 13:49:30;;;;;;;3.97;1.52;;;;;;;;;;5012758;28;20046;-63
2021/10/03 13:52:15;;;;;;;3.95;3.55;;;;;;;;;;5012526;28;20432;-63
2021/10/03 13:55:00;;;;;;;2.42;0.60;;;;;;;;;;5004059;28;20078;-64
2021/10/03 13:57:46;;;;;;;2.10;0.50;;;;;;;;;;4993053;28;20058;-64
2021/10/03 14:00:31;;;;;;;2.97;0.40;;;;;;;;;;4992866;28;20050;-63
2021/10/03 14:03:16;;;;;;;3.65;0.65;;;;;;;;;;4992932;28;20054;-65
2021/10/03 14:06:01;;;;;;;2.60;0.60;;;;;;;;;;5006382;28;20050;-66
2021/10/03 14:08:47;;;;;;;1.45;0.80;;;;;;;;;;5013766;28;20050;-66
2021/10/03 14:11:32;;;;;;;2.10;0.45;;;;;;;;;;5013234;28;20054;-66
2021/10/03 14:14:17;;;;;;;5.82;0.80;;;;;;;;;;5012621;28;20504;-67
2021/10/03 14:17:02;;;;;;;2.85;0.70;;;;;;;;;;4990921;28;20069;-65
2021/10/03 14:19:47;;;;;;;1.52;0.50;;;;;;;;;;4993581;28;20086;-66
2021/10/03 14:22:33;;;;;;;0.73;0.32;;;;;;;;;;4993183;28;20042;-66
2021/10/03 14:25:18;;;;;;;1.67;0.40;;;;;;;;;;4993217;28;20492;-66
2021/10/03 14:28:04;;;;;;;1.92;0.50;;;;;;;;;;4994335;28;20046;-67
2021/10/03 14:30:49;;;;;;;1.23;0.30;;;;;;;;;;4995203;28;20054;-65
2021/10/03 14:33:34;;;;;;;1.23;0.50;;;;;;;;;;4995276;28;20050;-67
2021/10/03 14:36:20;;;;;;;0.45;0.45;;;;;;;;;;5002856;28;20130;-66
2021/10/03 14:39:05;;;;;;;2.30;0.20;;;;;;;;;;5015168;28;20097;-65
2021/10/03 14:41:50;;;;;;;0.85;0.30;;;;;;;;;;5061015;22;20046;-61
2021/10/03 14:44:35;;;;;;;1.58;0.30;;;;;;;;;;5010545;28;20094;-61
2021/10/03 14:47:21;;;;;;;1.77;0.40;;;;;;;;;;5025013;28;20046;-62
2021/10/03 14:50:06;;;;;;;1.55;0.30;;;;;;;;;;5031470;28;20045;-61
2021/10/03 14:52:52;;;;;;;1.30;0.20;;;;;;;;;;5022665;28;20085;-61
2021/10/03 14:55:37;;;;;;;2.58;0.30;;;;;;;;;;5011922;28;20050;-60
2021/10/03 14:58:22;;;;;;;2.55;0.30;;;;;;;;;;4993315;28;20062;-61
2021/10/03 15:01:08;;;;;;;0.32;0.10;;;;;;;;;;4992192;28;20129;-60
2021/10/03 15:03:53;;;;;;;0.30;0.20;;;;;;;;;;4991949;28;20558;-60
2021/10/03 15:06:38;;;;;;;1.27;0.13;;;;;;;;;;4993606;28;20051;-60
2021/10/03 15:09:24;;;;;;;0.77;0.38;;;;;;;;;;5011683;28;20508;-60
2021/10/03 15:12:09;;;;;;;2.30;0.30;;;;;;;;;;5011894;28;20125;-60
2021/10/03 15:14:54;;;;;;;1.00;0.30;;;;;;;;;;5011644;28;20049;-60
2021/10/03 15:17:40;;;;;;;0.77;0.22;;;;;;;;;;5004374;28;20054;-61
2021/10/03 15:20:25;;;;;;;0.85;0.30;;;;;;;;;;4992243;28;20050;-60
2021/10/03 15:23:11;;;;;;;2.85;0.40;;;;;;;;;;4992051;28;20047;-60
2021/10/03 15:25:56;;;;;;;0.40;0.40;;;;;;;;;;4991966;28;20424;-62
2021/10/03 15:28:41;;;;;;;0.50;0.30;;;;;;;;;;5007001;28;20492;-60
2021/10/03 15:31:27;;;;;;;0.55;0.30;;;;;;;;;;5015417;28;20054;-60
2021/10/03 15:34:12;;;;;;;0.30;0.30;;;;;;;;;;5014749;28;20500;-60
2021/10/03 15:36:57;;;;;;;0.70;0.20;;;;;;;;;;5015332;28;20058;-61
2021/10/03 15:39:42;;;;;;;1.27;0.65;;;;;;;;;;5013280;28;20054;-61
2021/10/03 15:42:28;;;;;;;0.45;0.45;;;;;;;;;;5014647;28;20504;-60
2021/10/03 15:45:13;;;;;;;0.52;0.30;;;;;;;;;;5014777;28;20046;-60
2021/10/03 15:47:58;;;;;;;0.85;0.38;;;;;;;;;;5012800;28;20519;-61
2021/10/03 15:50:43;;;;;;;0.70;0.40;;;;;;;;;;4995164;28;20050;-60
2021/10/03 15:53:29;;;;;;;1.23;0.45;;;;;;;;;;4995031;28;20050;-61
2021/10/03 15:56:14;;;;;;;0.65;0.20;;;;;;;;;;4995132;28;20046;-60
2021/10/03 15:58:59;;;;;;;1.02;0.20;;;;;;;;;;5002149;28;20081;-60
2021/10/03 16:01:45;;;;;;;1.17;0.20;;;;;;;;;;5012957;28;20058;-60
2021/10/03 16:04:31;;;;;;;0.35;0.35;;;;;;;;;;5014431;28;20065;-61
2021/10/03 16:07:16;;;;;;;2.53;0.52;;;;;;;;;;5014492;28;20050;-61
2021/10/03 16:10:02;;;;;;;0.60;0.22;;;;;;;;;;5002541;28;20391;-60
2021/10/03 16:12:47;;;;;;;1.42;0.50;;;;;;;;;;4994835;28;20099;-61
2021/10/03 16:15:32;;;;;;;2.70;0.30;;;;;;;;;;4994617;28;20121;-61
2021/10/03 16:18:18;;;;;;;0.65;0.32;;;;;;;;;;4994940;28;21135;-61
2021/10/03 16:21:03;;;;;;;0.68;0.47;;;;;;;;;;4995755;28;20054;-61
2021/10/03 16:23:49;;;;;;;2.75;0.77;;;;;;;;;;4994181;28;20050;-62
2021/10/03 16:26:34;;;;;;;2.55;0.82;;;;;;;;;;4994413;28;20420;-61
2021/10/03 16:29:19;;;;;;;1.73;0.90;;;;;;;;;;4995014;28;20062;-61
2021/10/03 16:32:05;;;;;;;2.33;0.80;;;;;;;;;;5014127;28;20061;-61
2021/10/03 16:34:50;;;;;;;1.02;0.70;;;;;;;;;;5013735;28;20062;-61